Time;durP1;ratioP1;P1;durP2;ratioP2;P2;SDS_P1;SDS_P2;PMS_P1;PMS_P2;Temp;Humidity;BMP_temperature;BMP_pressure;BME280_temperature;BME280_humidity;BME280_pressure;Samples;Min_cycle;Max_cycle;Signal;HPM_P1;HPM_P2
2022/12/13 00:01:24;;;;;;;;;;;;;;;4.96;73.73;100613.28;5026404;28;4351;-86
2022/12/13 00:03:51;;;;;;;;;;;;;;;5.25;72.81;100606.31;5017036;28;4242;-86
2022/12/13 00:06:17;;;;;;;;;;;;;;;4.99;73.70;100614.75;5004033;28;4392;-86
2022/12/13 00:08:44;;;;;;;;;;;;;;;4.95;73.63;100611.63;5008500;28;4390;-86
2022/12/13 00:11:12;;;;;;;;;;;;;;;4.95;73.93;100605.47;5024141;28;4341;-86
2022/12/13 00:13:39;;;;;;;;;;;;;;;5.13;72.98;100594.44;5024427;28;4068;-86
2022/12/13 00:16:05;;;;;;;;;;;;;;;5.01;73.44;100591.38;5005613;28;4376;-86
2022/12/13 00:18:32;;;;;;;;;;;;;;;4.93;73.90;100576.28;5003467;28;4159;-87
2022/12/13 00:20:59;;;;;;;;;;;;;;;5.09;73.25;100577.09;5021022;28;4100;-86
2022/12/13 00:23:25;;;;;;;;;;;;;;;5.16;73.15;100576.22;5021594;28;4365;-86
2022/12/13 00:25:52;;;;;;;;;;;;;;;4.99;73.61;100572.88;5022928;28;4240;-86
2022/12/13 00:28:18;;;;;;;;;;;;;;;4.88;74.01;100562.66;5006987;28;4115;-86
2022/12/13 00:30:45;;;;;;;;;;;;;;;4.93;73.83;100562.94;5008547;28;4310;-85
2022/12/13 00:33:11;;;;;;;;;;;;;;;4.96;73.42;100559.06;5023356;28;4374;-86
2022/12/13 00:35:38;;;;;;;;;;;;;;;4.95;73.92;100557.44;5030464;28;4384;-85
2022/12/13 00:38:04;;;;;;;;;;;;;;;4.98;73.58;100552.53;5042865;28;3470;-85
2022/12/13 00:40:31;;;;;;;;;;;;;;;5.18;72.63;100552.81;5022497;28;4379;-86
2022/12/13 00:42:57;;;;;;;;;;;;;;;5.05;73.46;100552.63;5041051;28;4251;-86
2022/12/13 00:45:24;;;;;;;;;;;;;;;5.02;73.61;100545.00;5021562;28;4365;-86
2022/12/13 00:47:51;;;;;;;;;;;;;;;5.01;73.94;100536.16;5029499;28;4359;-86
2022/12/13 00:50:17;;;;;;;;;;;;;;;5.00;73.42;100528.34;5041375;28;4245;-84
2022/12/13 00:52:44;;;;;;;;;;;;;;;4.98;73.66;100531.19;5042179;28;4014;-86
2022/12/13 00:55:10;;;;;;;;;;;;;;;4.94;73.69;100529.91;5040242;28;4352;-86
2022/12/13 00:57:37;;;;;;;;;;;;;;;4.98;73.43;100520.50;5021622;28;3464;-85
2022/12/13 01:00:03;;;;;;;;;;;;;;;5.07;73.32;100523.09;5029170;28;4127;-85
2022/12/13 01:02:30;;;;;;;;;;;;;;;4.97;73.44;100521.53;5024145;28;3598;-86
2022/12/13 01:04:57;;;;;;;;;;;;;;;4.94;73.64;100518.38;5033576;28;4328;-84
2022/12/13 01:07:23;;;;;;;;;;;;;;;4.96;73.59;100508.34;5025958;28;4279;-85
2022/12/13 01:09:50;;;;;;;;;;;;;;;4.94;73.55;100510.38;5033605;28;3971;-85
2022/12/13 01:12:17;;;;;;;;;;;;;;;5.02;73.49;100510.28;5031211;28;4333;-86
2022/12/13 01:14:44;;;;;;;;;;;;;;;5.25;72.50;100515.53;5041387;28;4551;-85
2022/12/13 01:17:11;;;;;;;;;;;;;;;5.00;73.19;100520.34;5024920;28;4377;-85
2022/12/13 01:19:37;;;;;;;;;;;;;;;4.94;73.35;100521.03;5047275;28;4199;-87
2022/12/13 01:22:04;;;;;;;;;;;;;;;4.96;73.57;100508.34;5028405;28;4213;-86
2022/12/13 01:24:30;;;;;;;;;;;;;;;4.99;73.28;100519.50;5030124;28;4231;-86
2022/12/13 01:26:57;;;;;;;;;;;;;;;5.12;72.90;100507.34;5028915;28;4291;-86
2022/12/13 01:29:23;;;;;;;;;;;;;;;5.02;73.20;100504.94;5027669;28;4253;-86
2022/12/13 01:31:50;;;;;;;;;;;;;;;4.95;73.31;100498.69;5046078;28;4291;-86
2022/12/13 01:34:16;;;;;;;;;;;;;;;5.04;73.11;100508.28;5052531;28;4074;-85
2022/12/13 01:36:43;;;;;;;;;;;;;;;5.00;73.13;100499.00;5013240;28;4249;-85
2022/12/13 01:39:09;;;;;;;;;;;;;;;4.90;73.61;100490.41;5027413;28;4214;-86
2022/12/13 01:41:36;;;;;;;;;;;;;;;4.89;73.71;100502.09;5029019;28;4353;-86
2022/12/13 01:44:02;;;;;;;;;;;;;;;5.05;73.28;100498.41;5009272;28;4251;-84
2022/12/13 01:46:29;;;;;;;;;;;;;;;5.11;72.90;100490.47;5008518;28;4469;-86
2022/12/13 01:48:55;;;;;;;;;;;;;;;4.97;73.21;100500.19;5008780;28;4377;-86
2022/12/13 01:51:22;;;;;;;;;;;;;;;4.99;73.52;100489.31;5027426;28;4355;-86
2022/12/13 01:53:48;;;;;;;;;;;;;;;5.13;72.64;100487.66;5026742;28;4349;-85
2022/12/13 01:56:15;;;;;;;;;;;;;;;5.05;72.94;100490.41;5007243;28;4318;-87
2022/12/13 01:58:41;;;;;;;;;;;;;;;5.04;72.85;100481.56;5016437;28;4485;-84
2022/12/13 02:01:08;;;;;;;;;;;;;;;5.00;73.23;100480.31;5012385;28;4320;-85
2022/12/13 02:03:35;;;;;;;;;;;;;;;5.12;72.65;100476.16;5030827;28;4337;-85
2022/12/13 02:06:01;;;;;;;;;;;;;;;5.01;72.90;100463.25;5018524;28;4281;-85
2022/12/13 02:08:28;;;;;;;;;;;;;;;4.96;73.13;100469.13;5027767;28;4329;-84
2022/12/13 02:10:55;;;;;;;;;;;;;;;4.98;73.09;100468.97;5012376;28;4135;-87
2022/12/13 02:13:21;;;;;;;;;;;;;;;5.15;72.88;100469.59;5007315;28;4379;-86
2022/12/13 02:15:48;;;;;;;;;;;;;;;5.11;72.65;100468.31;5011565;28;4332;-84
2022/12/13 02:18:15;;;;;;;;;;;;;;;5.10;72.64;100470.16;5009093;28;4336;-85
2022/12/13 02:20:41;;;;;;;;;;;;;;;5.02;73.29;100475.59;5026921;28;4212;-86
2022/12/13 02:23:08;;;;;;;;;;;;;;;5.04;72.93;100467.41;5007754;28;4345;-85
2022/12/13 02:25:34;;;;;;;;;;;;;;;4.89;73.35;100462.06;5023968;28;4064;-86
2022/12/13 02:28:01;;;;;;;;;;;;;;;5.01;73.15;100465.94;5022406;28;4318;-86
2022/12/13 02:30:28;;;;;;;;;;;;;;;4.89;73.51;100456.75;5008036;28;4439;-85
2022/12/13 02:32:54;;;;;;;;;;;;;;;4.93;73.25;100444.66;5006437;28;4234;-86
2022/12/13 02:35:22;;;;;;;;;;;;;;;5.00;72.85;100441.09;5027678;28;4144;-87
2022/12/13 02:37:48;;;;;;;;;;;;;;;5.02;73.02;100432.88;5032758;28;4295;-85
2022/12/13 02:40:15;;;;;;;;;;;;;;;5.03;72.91;100437.22;5030531;28;4322;-86
2022/12/13 02:42:41;;;;;;;;;;;;;;;5.04;73.12;100430.84;5049604;28;4204;-85
2022/12/13 02:45:08;;;;;;;;;;;;;;;4.95;73.30;100430.13;5028221;28;4393;-85
2022/12/13 02:47:34;;;;;;;;;;;;;;;4.95;72.95;100424.78;5045083;28;4244;-85
2022/12/13 02:50:01;;;;;;;;;;;;;;;4.97;73.00;100417.44;5020356;28;4278;-84
2022/12/13 02:52:27;;;;;;;;;;;;;;;4.98;73.29;100415.59;5030515;28;4315;-86
2022/12/13 02:54:54;;;;;;;;;;;;;;;4.98;73.32;100411.06;5027675;28;4311;-86
2022/12/13 02:57:20;;;;;;;;;;;;;;;5.03;72.78;100407.84;5026670;28;4355;-85
2022/12/13 02:59:47;;;;;;;;;;;;;;;5.03;72.78;100412.34;5039817;28;3647;-85
2022/12/13 03:02:13;;;;;;;;;;;;;;;5.05;72.72;100413.00;5028535;28;4238;-85
2022/12/13 03:06:28;;;;;;;;;;;;;;;5.15;72.08;100413.53;5048991;28;4323;-85
2022/12/13 03:07:26;;;;;;;;;;;;;;;4.98;73.41;100394.22;5050168;28;4377;-85
2022/12/13 03:09:53;;;;;;;;;;;;;;;4.90;73.45;100394.34;5026717;28;4250;-85
2022/12/13 03:15:04;;;;;;;;;;;;;;;4.99;73.11;100391.38;5043198;28;4065;-85
2022/12/13 03:17:31;;;;;;;;;;;;;;;4.85;73.63;100388.72;5047132;28;3947;-85
2022/12/13 03:19:58;;;;;;;;;;;;;;;4.93;73.08;100381.44;5041227;28;4014;-84
2022/12/13 03:22:24;;;;;;;;;;;;;;;5.03;72.93;100382.97;5044465;28;4359;-84
2022/12/13 03:24:51;;;;;;;;;;;;;;;5.04;72.71;100371.31;5042424;28;4319;-85
2022/12/13 03:27:18;;;;;;;;;;;;;;;4.98;72.92;100371.03;5021432;28;4314;-85
2022/12/13 03:29:45;;;;;;;;;;;;;;;5.02;72.36;100363.47;5028670;28;4391;-83
2022/12/13 03:32:11;;;;;;;;;;;;;;;5.06;72.66;100364.78;5043148;28;4227;-85
2022/12/13 03:34:38;;;;;;;;;;;;;;;5.11;72.33;100364.19;5032027;28;4338;-85
2022/12/13 03:37:04;;;;;;;;;;;;;;;5.04;72.80;100357.97;5043973;28;4221;-86
2022/12/13 03:39:31;;;;;;;;;;;;;;;5.13;72.54;100356.81;5043266;28;4085;-84
2022/12/13 03:41:57;;;;;;;;;;;;;;;5.00;72.75;100352.19;5045174;28;4271;-86
2022/12/13 03:44:24;;;;;;;;;;;;;;;5.00;72.75;100360.19;5023127;28;4338;-85
2022/12/13 03:46:51;;;;;;;;;;;;;;;4.36;72.96;100234.66;5042962;28;4312;-86
2022/12/13 03:49:18;;;;;;;;;;;;;;;5.05;72.46;100343.59;5023997;28;4101;-85
2022/12/13 03:51:44;;;;;;;;;;;;;;;4.94;72.96;100332.41;5032458;28;4473;-86
2022/12/13 03:54:11;;;;;;;;;;;;;;;4.96;72.78;100332.19;5031115;28;4313;-86
2022/12/13 03:56:38;;;;;;;;;;;;;;;5.10;72.50;100334.00;5020587;28;4315;-85
2022/12/13 03:59:04;;;;;;;;;;;;;;;4.96;72.52;100334.88;5020367;28;4351;-85
2022/12/13 04:01:31;;;;;;;;;;;;;;;5.01;72.70;100327.13;5035876;28;4400;-86
2022/12/13 04:03:57;;;;;;;;;;;;;;;5.03;72.36;100327.78;5032911;28;4357;-85
2022/12/13 04:06:24;;;;;;;;;;;;;;;5.00;72.79;100330.81;5026561;28;4309;-85
2022/12/13 04:08:50;;;;;;;;;;;;;;;4.98;72.61;100325.66;5047232;28;4346;-86
2022/12/13 04:14:01;;;;;;;;;;;;;;;4.95;72.96;100320.69;5042412;28;4346;-85
2022/12/13 04:16:28;;;;;;;;;;;;;;;5.02;72.38;100318.09;5032671;28;4176;-85
2022/12/13 04:18:54;;;;;;;;;;;;;;;5.15;72.31;100318.25;5039807;28;4225;-86
2022/12/13 04:21:21;;;;;;;;;;;;;;;4.97;72.64;100321.34;5025567;28;4355;-84
2022/12/13 04:23:47;;;;;;;;;;;;;;;5.09;72.11;100318.16;5031652;28;4300;-85
2022/12/13 04:26:14;;;;;;;;;;;;;;;5.01;72.55;100314.59;5025736;28;4317;-85
2022/12/13 04:28:41;;;;;;;;;;;;;;;5.10;72.17;100312.63;5041760;28;4239;-86
2022/12/13 04:31:07;;;;;;;;;;;;;;;4.94;72.54;100316.38;5044776;28;3803;-85
2022/12/13 04:33:34;;;;;;;;;;;;;;;4.87;72.99;100307.47;5039274;28;4063;-85
2022/12/13 04:36:00;;;;;;;;;;;;;;;4.92;72.80;100297.06;5026369;28;4382;-85
2022/12/13 04:38:27;;;;;;;;;;;;;;;4.91;72.53;100294.56;5042047;28;4669;-85
2022/12/13 04:40:54;;;;;;;;;;;;;;;5.30;71.30;100293.34;5051855;28;4470;-85
2022/12/13 04:43:20;;;;;;;;;;;;;;;4.97;72.31;100283.13;5028889;28;4283;-86
2022/12/13 04:45:47;;;;;;;;;;;;;;;5.06;72.16;100281.16;5044392;28;4344;-86
2022/12/13 04:48:13;;;;;;;;;;;;;;;5.02;71.92;100280.72;5037725;28;4318;-86
2022/12/13 04:50:40;;;;;;;;;;;;;;;4.86;72.76;100279.13;5043600;28;4350;-86
2022/12/13 04:53:06;;;;;;;;;;;;;;;4.88;73.09;100266.44;5043460;28;4361;-85
2022/12/13 04:55:33;;;;;;;;;;;;;;;5.04;72.30;100265.34;5033506;28;4238;-85
2022/12/13 04:57:59;;;;;;;;;;;;;;;5.00;72.46;100258.75;5044914;28;4319;-85
2022/12/13 05:00:26;;;;;;;;;;;;;;;4.90;72.72;100252.88;5029450;28;4281;-85
2022/12/13 05:02:52;;;;;;;;;;;;;;;5.07;72.03;100254.28;5034175;28;4402;-84
2022/12/13 05:05:19;;;;;;;;;;;;;;;5.02;72.17;100238.00;5051527;28;4261;-86
2022/12/13 05:07:46;;;;;;;;;;;;;;;4.92;72.55;100238.34;5046125;28;4155;-84
2022/12/13 05:10:13;;;;;;;;;;;;;;;4.93;72.52;100231.97;5031034;28;4275;-85
2022/12/13 05:12:39;;;;;;;;;;;;;;;4.95;72.62;100229.94;5047516;28;4382;-86
2022/12/13 05:15:06;;;;;;;;;;;;;;;5.08;72.11;100228.41;5050142;28;3403;-85
2022/12/13 05:17:32;;;;;;;;;;;;;;;4.96;72.88;100223.59;5029638;28;4432;-84
2022/12/13 05:19:59;;;;;;;;;;;;;;;4.93;72.36;100228.50;5028822;28;3997;-85
2022/12/13 05:22:25;;;;;;;;;;;;;;;4.99;72.22;100228.53;5037486;28;4467;-84
2022/12/13 05:24:52;;;;;;;;;;;;;;;5.01;72.55;100231.84;5020753;28;4381;-84
2022/12/13 05:27:18;;;;;;;;;;;;;;;5.01;72.26;100215.03;5049824;28;4317;-85
2022/12/13 05:29:45;;;;;;;;;;;;;;;4.95;72.69;100210.44;5042136;28;4054;-85
2022/12/13 05:32:12;;;;;;;;;;;;;;;4.96;72.37;100201.41;5041988;28;4245;-84
2022/12/13 05:34:38;;;;;;;;;;;;;;;4.95;72.57;100200.59;5030102;28;4544;-84
2022/12/13 05:37:05;;;;;;;;;;;;;;;4.80;72.84;100201.69;5046949;28;4355;-85
2022/12/13 05:39:32;;;;;;;;;;;;;;;4.88;72.82;100209.53;5028135;28;4351;-84
2022/12/13 05:41:58;;;;;;;;;;;;;;;4.87;72.57;100210.56;5029120;28;4371;-85
2022/12/13 05:44:25;;;;;;;;;;;;;;;4.99;72.60;100209.03;5025360;28;4407;-85
2022/12/13 05:46:51;;;;;;;;;;;;;;;4.91;72.78;100198.50;5030608;28;4093;-85
2022/12/13 05:49:18;;;;;;;;;;;;;;;4.90;72.67;100194.19;5028541;28;4329;-85
2022/12/13 05:51:44;;;;;;;;;;;;;;;4.93;72.38;100186.59;5045204;28;4084;-85
2022/12/13 05:54:11;;;;;;;;;;;;;;;4.91;72.56;100187.81;5040205;28;4306;-84
2022/12/13 05:56:38;;;;;;;;;;;;;;;4.85;72.49;100186.72;5044642;28;4317;-86
2022/12/13 05:59:04;;;;;;;;;;;;;;;4.93;72.70;100193.78;5046214;28;4326;-85
2022/12/13 06:01:31;;;;;;;;;;;;;;;4.94;72.43;100185.63;5052331;28;4291;-85
2022/12/13 06:03:57;;;;;;;;;;;;;;;4.93;72.23;100180.44;5051408;28;4235;-86
2022/12/13 06:06:24;;;;;;;;;;;;;;;5.03;72.03;100182.78;5030282;28;4278;-84
2022/12/13 06:08:50;;;;;;;;;;;;;;;4.93;72.27;100191.94;5046799;28;4609;-84
2022/12/13 06:11:17;;;;;;;;;;;;;;;4.96;72.22;100190.75;5046884;28;4326;-85
2022/12/13 06:13:43;;;;;;;;;;;;;;;5.01;71.69;100191.81;5047242;28;4081;-85
2022/12/13 06:16:10;;;;;;;;;;;;;;;5.03;71.90;100196.13;5030337;28;4409;-85
2022/12/13 06:18:36;;;;;;;;;;;;;;;4.90;72.29;100199.50;5032472;28;4429;-85
2022/12/13 06:21:03;;;;;;;;;;;;;;;5.04;71.67;100195.94;5031614;28;4224;-84
2022/12/13 06:23:29;;;;;;;;;;;;;;;5.00;71.77;100184.84;5047376;28;4410;-83
2022/12/13 06:25:56;;;;;;;;;;;;;;;5.03;71.79;100188.97;5033773;28;4287;-83
2022/12/13 06:28:22;;;;;;;;;;;;;;;4.94;72.31;100185.63;5042783;28;4406;-83
2022/12/13 06:30:51;;;;;;;;;;;;;;;4.90;72.28;100183.50;5044836;28;4282;-85
2022/12/13 06:33:17;;;;;;;;;;;;;;;5.06;71.71;100187.75;5030762;28;4144;-85
2022/12/13 06:35:44;;;;;;;;;;;;;;;4.90;72.13;100186.16;5043570;28;4373;-86
2022/12/13 06:38:11;;;;;;;;;;;;;;;4.80;72.39;100180.34;5041044;28;4014;-85
2022/12/13 06:40:37;;;;;;;;;;;;;;;4.77;72.82;100177.03;5031435;28;4312;-84
2022/12/13 06:43:03;;;;;;;;;;;;;;;5.00;72.08;100168.81;5029486;28;4518;-84
2022/12/13 06:45:30;;;;;;;;;;;;;;;4.83;72.46;100163.94;5049405;28;4514;-84
2022/12/13 06:47:57;;;;;;;;;;;;;;;5.02;71.99;100168.63;5037186;28;4465;-84
2022/12/13 06:50:23;;;;;;;;;;;;;;;4.76;72.51;100167.38;5037729;28;4346;-84
2022/12/13 06:52:49;;;;;;;;;;;;;;;4.94;71.87;100171.41;5023474;28;4214;-83
2022/12/13 06:55:16;;;;;;;;;;;;;;;4.90;72.31;100170.16;5045699;28;4419;-85
2022/12/13 06:57:42;;;;;;;;;;;;;;;4.98;71.99;100165.50;5043324;28;4395;-86
2022/12/13 07:00:09;;;;;;;;;;;;;;;4.91;72.01;100169.13;5033219;28;4302;-85
2022/12/13 07:02:36;;;;;;;;;;;;;;;4.93;71.73;100162.59;5024462;28;3477;-83
2022/12/13 07:05:03;;;;;;;;;;;;;;;4.80;72.37;100162.50;5048222;28;4231;-85
2022/12/13 07:07:29;;;;;;;;;;;;;;;4.84;72.54;100161.06;5045583;28;4448;-83
2022/12/13 07:09:56;;;;;;;;;;;;;;;5.10;71.53;100148.97;5028490;28;4479;-84
2022/12/13 07:12:22;;;;;;;;;;;;;;;4.81;72.21;100150.78;5045552;28;4411;-84
2022/12/13 07:14:49;;;;;;;;;;;;;;;4.90;71.84;100146.13;5038821;28;4440;-84
2022/12/13 07:17:15;;;;;;;;;;;;;;;4.87;72.21;100143.84;5024620;28;4338;-85
2022/12/13 07:19:42;;;;;;;;;;;;;;;4.86;72.16;100139.56;5023004;28;4279;-85
2022/12/13 07:22:08;;;;;;;;;;;;;;;4.92;71.75;100147.59;5030301;28;4248;-84
2022/12/13 07:24:35;;;;;;;;;;;;;;;4.95;71.50;100141.06;5046588;28;4499;-84
2022/12/13 07:27:02;;;;;;;;;;;;;;;4.76;72.57;100153.19;5049032;28;4153;-84
2022/12/13 07:29:28;;;;;;;;;;;;;;;4.88;71.99;100142.81;5023823;28;4186;-84
2022/12/13 07:31:55;;;;;;;;;;;;;;;4.79;72.30;100147.47;5044593;28;4229;-84
2022/12/13 07:34:21;;;;;;;;;;;;;;;5.07;71.14;100136.84;5041575;28;4411;-84
2022/12/13 07:36:48;;;;;;;;;;;;;;;4.72;72.16;100136.75;5050537;28;4734;-84
2022/12/13 07:39:15;;;;;;;;;;;;;;;4.80;71.96;100125.13;5032198;28;4208;-84
2022/12/13 07:41:41;;;;;;;;;;;;;;;4.81;71.98;100116.09;5032833;28;4475;-85
2022/12/13 07:44:08;;;;;;;;;;;;;;;4.96;71.57;100116.81;5027688;28;4401;-85
2022/12/13 07:46:34;;;;;;;;;;;;;;;4.83;72.01;100113.25;5039006;28;3720;-85
2022/12/13 07:49:01;;;;;;;;;;;;;;;4.74;72.20;100108.03;5074905;28;3486;-84
2022/12/13 07:51:27;;;;;;;;;;;;;;;4.77;72.06;100109.50;5053877;28;4091;-84
2022/12/13 07:53:54;;;;;;;;;;;;;;;4.77;72.31;100106.84;5048563;28;4612;-84
2022/12/13 07:56:21;;;;;;;;;;;;;;;4.78;72.18;100103.97;5042725;28;4306;-85
2022/12/13 07:58:47;;;;;;;;;;;;;;;4.85;72.23;100104.00;5028738;28;4331;-84
2022/12/13 08:01:14;;;;;;;;;;;;;;;4.72;72.36;100098.59;5032241;28;4468;-84
2022/12/13 08:03:41;;;;;;;;;;;;;;;4.61;72.73;100107.91;5027566;28;4255;-84
2022/12/13 08:06:07;;;;;;;;;;;;;;;4.72;72.26;100110.06;5041546;28;4213;-83
2022/12/13 08:08:34;;;;;;;;;;;;;;;4.87;71.73;100111.84;5024699;28;4481;-83
2022/12/13 08:11:00;;;;;;;;;;;;;;;4.71;72.27;100110.28;5027066;28;4319;-84
2022/12/13 08:13:27;;;;;;;;;;;;;;;4.84;71.79;100110.38;5037275;28;4352;-86
2022/12/13 08:15:54;;;;;;;;;;;;;;;4.78;72.01;100103.97;5029051;28;4399;-84
2022/12/13 08:18:20;;;;;;;;;;;;;;;4.74;71.82;100101.88;5026534;28;4310;-84
2022/12/13 08:20:47;;;;;;;;;;;;;;;4.80;72.12;100101.13;5042208;28;4343;-84
2022/12/13 08:23:13;;;;;;;;;;;;;;;4.75;71.82;100088.34;5049228;28;4239;-85
2022/12/13 08:25:39;;;;;;;;;;;;;;;4.78;72.13;100071.13;5043268;28;3441;-87
2022/12/13 08:28:06;;;;;;;;;;;;;;;4.71;72.14;100072.94;5059865;28;3459;-85
2022/12/13 08:30:32;;;;;;;;;;;;;;;4.76;72.07;100086.50;5060183;28;4372;-84
2022/12/13 08:32:59;;;;;;;;;;;;;;;4.76;71.83;100083.81;5033998;28;4353;-84
2022/12/13 08:35:25;;;;;;;;;;;;;;;4.80;71.68;100106.44;5044934;28;3528;-84
2022/12/13 08:37:51;;;;;;;;;;;;;;;4.86;71.47;100091.53;5020224;28;4295;-85
2022/12/13 08:40:18;;;;;;;;;;;;;;;4.72;72.07;100088.72;5021556;28;4044;-83
2022/12/13 08:42:44;;;;;;;;;;;;;;;4.68;72.08;100084.00;5020388;28;4153;-83
2022/12/13 08:45:11;;;;;;;;;;;;;;;4.70;72.20;100085.41;5028117;28;4261;-83
2022/12/13 08:47:37;;;;;;;;;;;;;;;4.66;72.53;100084.16;5029914;28;4092;-83
2022/12/13 08:50:04;;;;;;;;;;;;;;;4.70;72.03;100082.75;5028049;28;4403;-84
2022/12/13 08:52:30;;;;;;;;;;;;;;;4.71;71.76;100076.41;5041035;28;4214;-84
2022/12/13 08:54:57;;;;;;;;;;;;;;;4.80;71.51;100074.44;5036216;28;4238;-84
2022/12/13 08:57:23;;;;;;;;;;;;;;;4.55;72.62;100068.69;5015220;28;4178;-84
2022/12/13 08:59:49;;;;;;;;;;;;;;;4.71;72.04;100060.41;5028385;28;4381;-84
2022/12/13 09:02:16;;;;;;;;;;;;;;;4.68;72.28;100062.66;5021326;28;4397;-83
2022/12/13 09:04:42;;;;;;;;;;;;;;;4.71;72.09;100062.25;5028251;28;3510;-87
2022/12/13 09:07:09;;;;;;;;;;;;;;;4.91;71.19;100057.03;5023419;28;4175;-87
2022/12/13 09:09:35;;;;;;;;;;;;;;;4.62;72.25;100053.56;5032308;28;4550;-87
2022/12/13 09:12:01;;;;;;;;;;;;;;;4.66;72.00;100041.47;5042604;28;3641;-88
2022/12/13 09:14:28;;;;;;;;;;;;;;;4.61;72.43;100038.56;5051031;28;1597;-88
2022/12/13 09:16:54;;;;;;;;;;;;;;;4.68;72.03;100038.63;5028373;28;1742;-87
2022/12/13 09:19:21;;;;;;;;;;;;;;;4.80;71.41;100041.59;5030308;28;1484;-87
2022/12/13 09:21:47;;;;;;;;;;;;;;;4.77;71.84;100040.13;5031600;28;1702;-88
2022/12/13 09:24:14;;;;;;;;;;;;;;;4.66;71.89;100027.31;5029178;28;1996;-88
2022/12/13 09:26:40;;;;;;;;;;;;;;;4.83;71.31;100023.34;5022512;28;2059;-87
2022/12/13 09:29:07;;;;;;;;;;;;;;;4.66;72.19;100019.31;5030755;28;1559;-87
2022/12/13 09:31:34;;;;;;;;;;;;;;;4.63;72.14;100017.88;5047262;28;2072;-87
2022/12/13 09:34:01;;;;;;;;;;;;;;;4.63;72.17;100009.03;5032826;28;1809;-88
2022/12/13 09:36:27;;;;;;;;;;;;;;;4.64;72.26;100011.50;5053897;28;1785;-87
2022/12/13 09:38:54;;;;;;;;;;;;;;;4.64;71.89;99998.16;5071982;28;2147;-87
2022/12/13 09:41:20;;;;;;;;;;;;;;;4.70;71.89;100007.22;5040743;28;2229;-87
2022/12/13 09:43:47;;;;;;;;;;;;;;;4.53;72.67;100012.06;5073554;28;1981;-87
2022/12/13 09:46:14;;;;;;;;;;;;;;;4.73;71.47;100005.00;5047333;28;1522;-87
2022/12/13 09:48:41;;;;;;;;;;;;;;;4.68;71.65;100009.28;5056005;28;4460;-87
2022/12/13 09:51:08;;;;;;;;;;;;;;;4.61;72.02;100003.06;5052742;28;4389;-87
2022/12/13 09:53:35;;;;;;;;;;;;;;;4.79;71.48;100006.06;5056963;28;4203;-86
2022/12/13 09:56:01;;;;;;;;;;;;;;;4.62;72.18;100004.72;5040936;28;4257;-88
2022/12/13 09:58:28;;;;;;;;;;;;;;;4.70;71.71;100002.72;5041929;28;4314;-88
2022/12/13 10:00:54;;;;;;;;;;;;;;;4.67;71.93;99989.78;5053245;28;3473;-87
2022/12/13 10:03:21;;;;;;;;;;;;;;;4.70;71.63;99988.56;5043795;28;4287;-88
2022/12/13 10:05:47;;;;;;;;;;;;;;;4.54;72.54;99976.34;5052194;28;4176;-87
2022/12/13 10:08:14;;;;;;;;;;;;;;;4.59;72.24;99984.59;5037988;28;4249;-88
2022/12/13 10:10:41;;;;;;;;;;;;;;;4.69;72.09;99993.06;5047721;28;4251;-87
2022/12/13 10:13:08;;;;;;;;;;;;;;;4.53;72.25;99990.72;5038033;28;4371;-87
2022/12/13 10:15:35;;;;;;;;;;;;;;;4.64;71.79;99984.00;5041216;28;4266;-88
2022/12/13 10:18:01;;;;;;;;;;;;;;;4.82;71.43;99976.31;5053371;28;4377;-88
2022/12/13 10:20:28;;;;;;;;;;;;;;;4.65;71.89;99967.81;5054168;28;3815;-88
2022/12/13 10:22:55;;;;;;;;;;;;;;;4.66;71.95;99964.13;5052229;28;4371;-87
2022/12/13 10:25:21;;;;;;;;;;;;;;;4.46;72.35;99969.31;5050026;28;4189;-88
2022/12/13 10:27:48;;;;;;;;;;;;;;;4.64;72.03;99960.81;5050934;28;4400;-88
2022/12/13 10:30:14;;;;;;;;;;;;;;;4.75;71.73;99957.63;5033933;28;4267;-88
2022/12/13 10:32:41;;;;;;;;;;;;;;;4.67;71.88;99949.75;5047230;28;4259;-87
2022/12/13 10:35:08;;;;;;;;;;;;;;;4.73;71.71;99948.97;5043472;28;4516;-89
2022/12/13 10:37:35;;;;;;;;;;;;;;;4.69;71.69;99942.41;5024716;28;3529;-89
2022/12/13 10:40:01;;;;;;;;;;;;;;;4.61;72.12;99936.38;5016958;28;4325;-89
2022/12/13 10:42:28;;;;;;;;;;;;;;;4.50;72.44;99932.41;5016892;28;4062;-88
2022/12/13 10:44:54;;;;;;;;;;;;;;;4.59;72.49;99931.25;5033090;28;4449;-86
2022/12/13 10:47:21;;;;;;;;;;;;;;;4.78;71.58;99929.72;5019790;28;4222;-89
2022/12/13 10:49:48;;;;;;;;;;;;;;;4.64;72.09;99922.66;5031379;28;4130;-89
2022/12/13 10:52:14;;;;;;;;;;;;;;;4.54;72.68;99917.69;5032719;28;4233;-89
2022/12/13 10:54:41;;;;;;;;;;;;;;;4.67;71.91;99915.06;5018049;28;4205;-88
2022/12/13 10:57:08;;;;;;;;;;;;;;;4.65;72.36;99914.47;5016958;28;4436;-89
2022/12/13 10:59:34;;;;;;;;;;;;;;;4.57;72.40;99900.47;5017489;28;4438;-89
2022/12/13 11:02:02;;;;;;;;;;;;;;;4.49;72.71;99912.09;5014017;28;4385;-87
2022/12/13 11:04:30;;;;;;;;;;;;;;;4.73;71.68;99906.28;5024000;28;4386;-89
2022/12/13 11:06:56;;;;;;;;;;;;;;;4.53;72.45;99910.72;5009410;28;4407;-90
2022/12/13 11:09:23;;;;;;;;;;;;;;;4.58;72.39;99916.25;5018459;28;4273;-87
2022/12/13 11:11:50;;;;;;;;;;;;;;;4.65;72.01;99914.47;5018704;28;4338;-89
2022/12/13 11:14:18;;;;;;;;;;;;;;;4.68;71.91;99908.75;5021371;28;4545;-89
2022/12/13 11:16:44;;;;;;;;;;;;;;;4.60;72.62;99902.75;5028992;28;4435;-89
2022/12/13 11:19:11;;;;;;;;;;;;;;;4.69;71.83;99904.22;5019465;28;4345;-89
2022/12/13 11:21:38;;;;;;;;;;;;;;;4.57;72.58;99895.13;5018200;28;4317;-89
2022/12/13 11:24:05;;;;;;;;;;;;;;;4.50;72.75;99892.41;5015256;28;4734;-88
2022/12/13 11:26:32;;;;;;;;;;;;;;;4.58;72.74;99886.09;5019045;28;4120;-89
2022/12/13 11:28:58;;;;;;;;;;;;;;;4.73;71.81;99892.13;5022710;28;4267;-88
2022/12/13 11:31:25;;;;;;;;;;;;;;;4.63;72.18;99883.69;5010201;28;4323;-89
2022/12/13 11:33:52;;;;;;;;;;;;;;;4.68;72.10;99876.72;5034069;28;4325;-89
2022/12/13 11:36:19;;;;;;;;;;;;;;;4.60;72.42;99878.75;5039372;28;4274;-89
2022/12/13 11:38:45;;;;;;;;;;;;;;;4.69;72.07;99856.22;5040122;28;4176;-89
2022/12/13 11:41:12;;;;;;;;;;;;;;;4.80;71.56;99857.50;5051847;28;4239;-88
2022/12/13 11:43:38;;;;;;;;;;;;;;;4.55;72.80;99849.97;5051129;28;4243;-89
2022/12/13 11:46:05;;;;;;;;;;;;;;;4.73;71.94;99852.13;5034993;28;4236;-89
2022/12/13 11:48:31;;;;;;;;;;;;;;;4.68;71.97;99859.91;5032703;28;4395;-88
2022/12/13 11:50:58;;;;;;;;;;;;;;;4.63;72.16;99846.34;5035413;28;4444;-88
2022/12/13 11:53:24;;;;;;;;;;;;;;;4.65;72.25;99852.31;5042015;28;4243;-88
2022/12/13 11:55:51;;;;;;;;;;;;;;;4.89;71.58;99851.78;5039302;28;4246;-89
2022/12/13 11:58:17;;;;;;;;;;;;;;;4.67;72.00;99844.91;5030884;28;3596;-90
2022/12/13 12:00:46;;;;;;;;;;;;;;;4.60;72.37;99846.72;5035575;28;4379;-88
2022/12/13 12:03:12;;;;;;;;;;;;;;;4.75;71.82;99829.56;5042158;28;4432;-90
2022/12/13 12:05:39;;;;;;;;;;;;;;;4.76;71.80;99833.03;5032417;28;4478;-87
2022/12/13 12:08:05;;;;;;;;;;;;;;;4.72;72.07;99821.13;5040261;28;4432;-89
2022/12/13 12:10:32;;;;;;;;;;;;;;;4.67;72.04;99826.22;5051858;28;4418;-88
2022/12/13 12:12:58;;;;;;;;;;;;;;;4.62;72.43;99812.66;5032613;28;4295;-89
2022/12/13 12:15:25;;;;;;;;;;;;;;;4.67;72.35;99805.72;5037862;28;4654;-88
2022/12/13 12:17:52;;;;;;;;;;;;;;;4.77;71.87;99802.69;5039114;28;3688;-88
2022/12/13 12:20:18;;;;;;;;;;;;;;;4.98;71.34;99796.38;5037841;28;4424;-88
2022/12/13 12:22:45;;;;;;;;;;;;;;;4.81;71.76;99795.91;5040275;28;4349;-87
2022/12/13 12:25:11;;;;;;;;;;;;;;;4.81;71.55;99785.25;5037680;28;4357;-89
2022/12/13 12:27:38;;;;;;;;;;;;;;;4.75;71.88;99789.53;5051408;28;4499;-89
2022/12/13 12:30:06;;;;;;;;;;;;;;;4.86;71.64;99788.16;5058506;28;4422;-86
2022/12/13 12:32:32;;;;;;;;;;;;;;;4.70;72.12;99799.16;5046526;28;4241;-84
2022/12/13 12:35:00;;;;;;;;;;;;;;;4.71;71.85;99788.31;5046169;28;3547;-85
2022/12/13 12:37:27;;;;;;;;;;;;;;;4.88;71.46;99770.09;5041574;28;4112;-85
2022/12/13 12:39:54;;;;;;;;;;;;;;;4.74;72.29;99765.75;5044748;28;4475;-87
2022/12/13 12:42:21;;;;;;;;;;;;;;;4.72;72.13;99757.09;5056338;28;4278;-87
2022/12/13 12:44:47;;;;;;;;;;;;;;;4.81;71.75;99768.41;5040727;28;4410;-86
2022/12/13 12:47:13;;;;;;;;;;;;;;;4.78;71.87;99764.31;5058137;28;3568;-84
2022/12/13 12:49:40;;;;;;;;;;;;;;;4.91;71.62;99763.50;5059666;28;4516;-86
2022/12/13 12:52:06;;;;;;;;;;;;;;;4.72;72.15;99763.25;5043565;28;4370;-86
2022/12/13 12:54:32;;;;;;;;;;;;;;;4.74;72.14;99761.22;5046380;28;4409;-85
2022/12/13 12:56:59;;;;;;;;;;;;;;;4.66;72.38;99766.72;5042048;28;4155;-86
2022/12/13 12:59:26;;;;;;;;;;;;;;;4.88;71.62;99756.75;5038072;28;3748;-84
2022/12/13 13:01:52;;;;;;;;;;;;;;;4.71;72.08;99753.63;5057985;28;3578;-84